sensor_id;sensor_type;location;lat;lon;timestamp;pressure;altitude;pressure_sealevel;temperature;humidity
12868;BME280;33517;49.866;8.320;2024-02-28T00:01:15;100665.59;;;5.10;89.09
12868;BME280;33517;49.866;8.320;2024-02-28T00:04:07;100676.28;;;5.07;88.41
12868;BME280;33517;49.866;8.320;2024-02-28T00:06:59;100669.78;;;5.02;88.27
12868;BME280;33517;49.866;8.320;2024-02-28T00:09:51;100671.94;;;4.97;88.38
12868;BME280;33517;49.866;8.320;2024-02-28T00:12:44;100670.97;;;4.98;89.13
12868;BME280;33517;49.866;8.320;2024-02-28T00:15:36;100665.03;;;4.96;89.63
12868;BME280;33517;49.866;8.320;2024-02-28T00:18:29;100672.06;;;4.95;89.63
12868;BME280;33517;49.866;8.320;2024-02-28T00:21:21;100664.47;;;4.92;89.20
12868;BME280;33517;49.866;8.320;2024-02-28T00:24:13;100678.47;;;4.91;89.29
12868;BME280;33517;49.866;8.320;2024-02-28T00:27:05;100679.41;;;4.90;89.34
12868;BME280;33517;49.866;8.320;2024-02-28T00:29:58;100677.06;;;4.87;89.29
12868;BME280;33517;49.866;8.320;2024-02-28T00:32:50;100678.97;;;4.85;89.20
12868;BME280;33517;49.866;8.320;2024-02-28T00:35:42;100688.94;;;4.80;89.13
12868;BME280;33517;49.866;8.320;2024-02-28T00:38:34;100675.53;;;4.74;88.76
12868;BME280;33517;49.866;8.320;2024-02-28T00:41:26;100685.88;;;4.64;88.48
12868;BME280;33517;49.866;8.320;2024-02-28T00:44:18;100683.16;;;4.54;88.38
12868;BME280;33517;49.866;8.320;2024-02-28T00:47:11;100692.41;;;4.47;88.56
12868;BME280;33517;49.866;8.320;2024-02-28T00:50:04;100690.41;;;4.40;88.43
12868;BME280;33517;49.866;8.320;2024-02-28T00:52:55;100692.16;;;4.39;88.16
12868;BME280;33517;49.866;8.320;2024-02-28T00:55:47;100699.84;;;4.41;88.91
12868;BME280;33517;49.866;8.320;2024-02-28T00:58:39;100707.53;;;4.42;89.03
12868;BME280;33517;49.866;8.320;2024-02-28T01:01:31;100709.94;;;4.45;88.83
12868;BME280;33517;49.866;8.320;2024-02-28T01:04:24;100703.88;;;4.45;88.93
12868;BME280;33517;49.866;8.320;2024-02-28T01:07:16;100710.06;;;4.44;88.73
12868;BME280;33517;49.866;8.320;2024-02-28T01:10:09;100710.06;;;4.44;89.53
12868;BME280;33517;49.866;8.320;2024-02-28T01:13:02;100720.47;;;4.44;89.40
12868;BME280;33517;49.866;8.320;2024-02-28T01:15:54;100724.84;;;4.43;89.42
12868;BME280;33517;49.866;8.320;2024-02-28T01:18:46;100729.22;;;4.43;89.69
12868;BME280;33517;49.866;8.320;2024-02-28T01:21:40;100724.97;;;4.42;89.84
12868;BME280;33517;49.866;8.320;2024-02-28T01:24:31;100720.69;;;4.41;89.94
12868;BME280;33517;49.866;8.320;2024-02-28T01:27:24;100727.81;;;4.39;89.68
12868;BME280;33517;49.866;8.320;2024-02-28T01:30:16;100714.91;;;4.37;90.09
12868;BME280;33517;49.866;8.320;2024-02-28T01:33:09;100717.63;;;4.36;89.81
12868;BME280;33517;49.866;8.320;2024-02-28T01:36:06;100720.34;;;4.34;90.13
12868;BME280;33517;49.866;8.320;2024-02-28T01:38:59;100722.13;;;4.34;90.32
12868;BME280;33517;49.866;8.320;2024-02-28T01:41:52;100722.25;;;4.32;90.35
12868;BME280;33517;49.866;8.320;2024-02-28T01:44:45;100718.31;;;4.27;90.39
12868;BME280;33517;49.866;8.320;2024-02-28T01:47:39;100726.38;;;4.24;90.45
12868;BME280;33517;49.866;8.320;2024-02-28T01:50:31;100737.13;;;4.19;90.89
12868;BME280;33517;49.866;8.320;2024-02-28T01:53:23;100733.22;;;4.14;89.90
12868;BME280;33517;49.866;8.320;2024-02-28T01:56:16;100729.56;;;4.05;90.78
12868;BME280;33517;49.866;8.320;2024-02-28T01:59:10;100733.53;;;3.98;90.47
12868;BME280;33517;49.866;8.320;2024-02-28T02:02:02;100732.00;;;3.85;90.03
12868;BME280;33517;49.866;8.320;2024-02-28T02:04:54;100736.34;;;3.73;89.69
12868;BME280;33517;49.866;8.320;2024-02-28T02:07:48;100733.69;;;3.62;90.02
12868;BME280;33517;49.866;8.320;2024-02-28T02:10:41;100734.47;;;3.51;89.73
12868;BME280;33517;49.866;8.320;2024-02-28T02:13:34;100738.38;;;3.46;90.15
12868;BME280;33517;49.866;8.320;2024-02-28T02:16:26;100741.53;;;3.38;89.52
12868;BME280;33517;49.866;8.320;2024-02-28T02:19:18;100748.81;;;3.33;89.71
12868;BME280;33517;49.866;8.320;2024-02-28T02:22:13;100743.78;;;3.19;89.88
12868;BME280;33517;49.866;8.320;2024-02-28T02:25:07;100744.53;;;3.09;90.46
12868;BME280;33517;49.866;8.320;2024-02-28T02:27:59;100747.50;;;3.04;89.97
12868;BME280;33517;49.866;8.320;2024-02-28T02:30:51;100750.19;;;3.03;89.86
12868;BME280;33517;49.866;8.320;2024-02-28T02:33:42;100746.97;;;2.99;90.12
12868;BME280;33517;49.866;8.320;2024-02-28T02:36:34;100744.47;;;2.98;89.76
12868;BME280;33517;49.866;8.320;2024-02-28T02:39:26;100748.03;;;2.97;90.21
12868;BME280;33517;49.866;8.320;2024-02-28T02:42:19;100749.50;;;2.88;89.91
12868;BME280;33517;49.866;8.320;2024-02-28T02:45:11;100752.84;;;2.77;90.65
12868;BME280;33517;49.866;8.320;2024-02-28T02:48:04;100750.56;;;2.73;90.90
12868;BME280;33517;49.866;8.320;2024-02-28T02:50:56;100754.94;;;2.72;90.36
12868;BME280;33517;49.866;8.320;2024-02-28T02:53:48;100763.88;;;2.68;90.46
12868;BME280;33517;49.866;8.320;2024-02-28T02:56:41;100767.53;;;2.66;90.22
12868;BME280;33517;49.866;8.320;2024-02-28T02:59:35;100774.50;;;2.65;90.39
12868;BME280;33517;49.866;8.320;2024-02-28T03:02:27;100766.59;;;2.67;90.70
12868;BME280;33517;49.866;8.320;2024-02-28T03:05:19;100769.69;;;2.72;91.03
12868;BME280;33517;49.866;8.320;2024-02-28T03:08:11;100767.09;;;2.72;92.85
12868;BME280;33517;49.866;8.320;2024-02-28T03:11:03;100767.22;;;2.45;94.93
12868;BME280;33517;49.866;8.320;2024-02-28T03:13:57;100776.06;;;2.30;96.31
12868;BME280;33517;49.866;8.320;2024-02-28T03:16:50;100780.13;;;2.34;95.67
12868;BME280;33517;49.866;8.320;2024-02-28T03:19:42;100776.50;;;2.37;94.54
12868;BME280;33517;49.866;8.320;2024-02-28T03:22:34;100779.09;;;2.37;95.57
12868;BME280;33517;49.866;8.320;2024-02-28T03:25:26;100783.34;;;2.38;96.26
12868;BME280;33517;49.866;8.320;2024-02-28T03:28:18;100782.00;;;2.45;95.58
12868;BME280;33517;49.866;8.320;2024-02-28T03:31:10;100788.22;;;2.42;94.55
12868;BME280;33517;49.866;8.320;2024-02-28T03:34:03;100789.25;;;2.40;94.33
12868;BME280;33517;49.866;8.320;2024-02-28T03:36:55;100793.09;;;2.34;94.16
12868;BME280;33517;49.866;8.320;2024-02-28T03:39:47;100791.53;;;2.32;93.51
12868;BME280;33517;49.866;8.320;2024-02-28T03:42:39;100795.25;;;2.28;92.97
12868;BME280;33517;49.866;8.320;2024-02-28T03:45:36;100798.06;;;2.25;93.61
12868;BME280;33517;49.866;8.320;2024-02-28T03:48:28;100807.63;;;2.24;93.45
12868;BME280;33517;49.866;8.320;2024-02-28T03:51:21;100814.78;;;2.21;93.10
12868;BME280;33517;49.866;8.320;2024-02-28T03:54:13;100822.91;;;2.16;93.60
12868;BME280;33517;49.866;8.320;2024-02-28T03:57:05;100828.38;;;2.12;93.30
12868;BME280;33517;49.866;8.320;2024-02-28T03:59:57;100830.47;;;2.07;93.71
12868;BME280;33517;49.866;8.320;2024-02-28T04:02:49;100834.09;;;2.04;93.58
12868;BME280;33517;49.866;8.320;2024-02-28T04:05:41;100829.19;;;2.00;93.12
12868;BME280;33517;49.866;8.320;2024-02-28T04:08:34;100841.94;;;1.90;92.76
12868;BME280;33517;49.866;8.320;2024-02-28T04:11:26;100846.69;;;1.83;93.38
12868;BME280;33517;49.866;8.320;2024-02-28T04:14:18;100839.81;;;1.82;92.87
12868;BME280;33517;49.866;8.320;2024-02-28T04:17:10;100842.44;;;1.82;93.21
12868;BME280;33517;49.866;8.320;2024-02-28T04:20:02;100836.50;;;1.80;92.87
12868;BME280;33517;49.866;8.320;2024-02-28T04:22:55;100842.06;;;1.74;93.01
12868;BME280;33517;49.866;8.320;2024-02-28T04:25:48;100839.56;;;1.60;94.11
12868;BME280;33517;49.866;8.320;2024-02-28T04:28:41;100836.50;;;1.54;94.33
12868;BME280;33517;49.866;8.320;2024-02-28T04:31:33;100846.03;;;1.53;93.55
12868;BME280;33517;49.866;8.320;2024-02-28T04:34:25;100845.41;;;1.50;93.40
12868;BME280;33517;49.866;8.320;2024-02-28T04:37:17;100849.84;;;1.48;93.33
12868;BME280;33517;49.866;8.320;2024-02-28T04:40:10;100863.13;;;1.43;93.63
12868;BME280;33517;49.866;8.320;2024-02-28T04:43:03;100866.00;;;1.39;93.41
12868;BME280;33517;49.866;8.320;2024-02-28T04:45:55;100868.06;;;1.34;93.28
12868;BME280;33517;49.866;8.320;2024-02-28T04:48:47;100884.53;;;1.33;93.57
12868;BME280;33517;49.866;8.320;2024-02-28T04:51:39;100883.88;;;1.29;93.70
12868;BME280;33517;49.866;8.320;2024-02-28T04:54:31;100882.13;;;1.30;93.53
12868;BME280;33517;49.866;8.320;2024-02-28T04:57:23;100893.31;;;1.30;93.62
12868;BME280;33517;49.866;8.320;2024-02-28T05:00:16;100902.13;;;1.28;93.41
12868;BME280;33517;49.866;8.320;2024-02-28T05:03:09;100905.56;;;1.28;94.05
12868;BME280;33517;49.866;8.320;2024-02-28T05:06:01;100908.97;;;1.29;94.52
12868;BME280;33517;49.866;8.320;2024-02-28T05:08:53;100909.28;;;1.24;94.03
12868;BME280;33517;49.866;8.320;2024-02-28T05:11:45;100902.59;;;1.20;94.31
12868;BME280;33517;49.866;8.320;2024-02-28T05:14:37;100899.38;;;1.17;94.18
12868;BME280;33517;49.866;8.320;2024-02-28T05:17:30;100902.22;;;1.12;93.84
12868;BME280;33517;49.866;8.320;2024-02-28T05:20:22;100901.50;;;1.10;93.91
12868;BME280;33517;49.866;8.320;2024-02-28T05:23:14;100911.09;;;1.08;93.77
12868;BME280;33517;49.866;8.320;2024-02-28T05:26:06;100901.75;;;1.06;93.61
12868;BME280;33517;49.866;8.320;2024-02-28T05:28:58;100911.47;;;1.02;93.67
12868;BME280;33517;49.866;8.320;2024-02-28T05:31:49;100910.72;;;1.00;93.94
12868;BME280;33517;49.866;8.320;2024-02-28T05:34:43;100921.28;;;0.97;93.50
12868;BME280;33517;49.866;8.320;2024-02-28T05:37:35;100911.28;;;0.91;93.38
12868;BME280;33517;49.866;8.320;2024-02-28T05:40:27;100918.31;;;0.89;93.64
12868;BME280;33517;49.866;8.320;2024-02-28T05:43:19;100921.00;;;0.87;93.11
12868;BME280;33517;49.866;8.320;2024-02-28T05:46:11;100932.28;;;0.86;94.08
12868;BME280;33517;49.866;8.320;2024-02-28T05:49:03;100937.41;;;0.88;93.99
12868;BME280;33517;49.866;8.320;2024-02-28T05:51:56;100941.72;;;0.87;93.44
12868;BME280;33517;49.866;8.320;2024-02-28T05:54:48;100942.56;;;0.88;94.60
12868;BME280;33517;49.866;8.320;2024-02-28T05:57:40;100939.25;;;0.86;94.22
12868;BME280;33517;49.866;8.320;2024-02-28T06:00:32;100940.41;;;0.80;94.04
12868;BME280;33517;49.866;8.320;2024-02-28T06:03:25;100939.69;;;0.78;94.50
12868;BME280;33517;49.866;8.320;2024-02-28T06:06:17;100950.78;;;0.80;93.47
12868;BME280;33517;49.866;8.320;2024-02-28T06:09:10;100949.75;;;0.83;93.61
12868;BME280;33517;49.866;8.320;2024-02-28T06:12:03;100955.59;;;0.86;93.08
12868;BME280;33517;49.866;8.320;2024-02-28T06:14:55;100958.66;;;0.93;93.55
12868;BME280;33517;49.866;8.320;2024-02-28T06:17:47;100964.31;;;1.00;93.83
12868;BME280;33517;49.866;8.320;2024-02-28T06:20:39;100965.78;;;1.04;93.36
12868;BME280;33517;49.866;8.320;2024-02-28T06:23:30;100968.13;;;1.08;93.93
12868;BME280;33517;49.866;8.320;2024-02-28T06:26:24;100961.56;;;1.17;93.34
12868;BME280;33517;49.866;8.320;2024-02-28T06:29:16;100971.38;;;1.26;93.14
12868;BME280;33517;49.866;8.320;2024-02-28T06:32:08;100991.44;;;1.36;92.37
12868;BME280;33517;49.866;8.320;2024-02-28T06:35:00;100981.94;;;1.51;92.94
12868;BME280;33517;49.866;8.320;2024-02-28T06:37:51;100989.41;;;1.69;92.22
12868;BME280;33517;49.866;8.320;2024-02-28T06:40:44;100991.41;;;1.93;92.03
12868;BME280;33517;49.866;8.320;2024-02-28T06:43:37;100997.84;;;2.14;92.19
12868;BME280;33517;49.866;8.320;2024-02-28T06:46:29;101010.38;;;2.34;91.78
12868;BME280;33517;49.866;8.320;2024-02-28T06:49:21;100997.56;;;2.57;91.40
12868;BME280;33517;49.866;8.320;2024-02-28T06:52:13;101007.72;;;2.87;90.37
12868;BME280;33517;49.866;8.320;2024-02-28T06:55:06;101011.69;;;3.18;90.25
12868;BME280;33517;49.866;8.320;2024-02-28T06:58:00;101005.47;;;4.30;88.87
12868;BME280;33517;49.866;8.320;2024-02-28T07:00:54;101009.09;;;5.65;85.09
12868;BME280;33517;49.866;8.320;2024-02-28T07:03:45;101001.09;;;6.85;81.72
12868;BME280;33517;49.866;8.320;2024-02-28T07:06:37;101008.13;;;7.56;79.51
12868;BME280;33517;49.866;8.320;2024-02-28T07:09:30;101015.19;;;8.05;77.53
12868;BME280;33517;49.866;8.320;2024-02-28T07:12:23;101011.31;;;8.68;75.80
12868;BME280;33517;49.866;8.320;2024-02-28T07:15:15;101015.38;;;9.27;73.82
12868;BME280;33517;49.866;8.320;2024-02-28T07:18:11;101020.63;;;9.37;72.44
12868;BME280;33517;49.866;8.320;2024-02-28T07:21:03;101016.34;;;9.26;73.11
12868;BME280;33517;49.866;8.320;2024-02-28T07:23:57;101014.34;;;8.54;74.61
12868;BME280;33517;49.866;8.320;2024-02-28T07:26:49;101028.00;;;7.98;77.27
12868;BME280;33517;49.866;8.320;2024-02-28T07:29:41;101029.28;;;7.74;77.81
12868;BME280;33517;49.866;8.320;2024-02-28T07:32:33;101034.84;;;7.80;78.71
12868;BME280;33517;49.866;8.320;2024-02-28T07:35:28;101030.00;;;7.76;75.60
12868;BME280;33517;49.866;8.320;2024-02-28T07:38:20;101031.56;;;8.37;75.78
12868;BME280;33517;49.866;8.320;2024-02-28T07:41:18;101031.75;;;8.83;73.26
12868;BME280;33517;49.866;8.320;2024-02-28T07:44:10;101034.78;;;8.98;71.96
12868;BME280;33517;49.866;8.320;2024-02-28T07:47:02;101038.50;;;8.38;71.46
12868;BME280;33517;49.866;8.320;2024-02-28T07:49:54;101034.16;;;7.78;71.17
12868;BME280;33517;49.866;8.320;2024-02-28T07:52:47;101038.78;;;7.44;73.54
12868;BME280;33517;49.866;8.320;2024-02-28T07:55:39;101038.16;;;7.82;73.80
12868;BME280;33517;49.866;8.320;2024-02-28T07:58:31;101026.63;;;8.53;72.76
12868;BME280;33517;49.866;8.320;2024-02-28T08:01:23;101031.22;;;9.55;70.63
12868;BME280;33517;49.866;8.320;2024-02-28T08:04:15;101035.75;;;10.26;68.74
12868;BME280;33517;49.866;8.320;2024-02-28T08:07:07;101034.34;;;10.49;67.29
12868;BME280;33517;49.866;8.320;2024-02-28T08:10:00;101029.59;;;11.05;65.69
12868;BME280;33517;49.866;8.320;2024-02-28T08:12:52;101037.97;;;12.12;62.76
12868;BME280;33517;49.866;8.320;2024-02-28T08:15:44;101030.56;;;13.21;60.92
12868;BME280;33517;49.866;8.320;2024-02-28T08:18:36;101034.91;;;13.69;57.63
12868;BME280;33517;49.866;8.320;2024-02-28T08:21:28;101036.97;;;14.67;56.17
12868;BME280;33517;49.866;8.320;2024-02-28T08:24:20;101041.88;;;15.96;53.57
12868;BME280;33517;49.866;8.320;2024-02-28T08:27:14;101048.38;;;16.58;51.51
12868;BME280;33517;49.866;8.320;2024-02-28T08:30:06;101044.25;;;17.68;50.42
12868;BME280;33517;49.866;8.320;2024-02-28T08:32:58;101050.09;;;18.38;50.42
12868;BME280;33517;49.866;8.320;2024-02-28T08:35:50;101047.59;;;19.17;48.02
12868;BME280;33517;49.866;8.320;2024-02-28T08:38:42;101044.59;;;20.54;45.75
12868;BME280;33517;49.866;8.320;2024-02-28T08:41:35;101048.06;;;20.92;44.11
12868;BME280;33517;49.866;8.320;2024-02-28T08:44:28;101055.38;;;21.77;43.46
12868;BME280;33517;49.866;8.320;2024-02-28T08:51:07;101052.38;;;23.11;40.13
12868;BME280;33517;49.866;8.320;2024-02-28T08:53:59;101057.16;;;24.24;39.50
12868;BME280;33517;49.866;8.320;2024-02-28T08:56:51;101060.41;;;25.11;36.65
12868;BME280;33517;49.866;8.320;2024-02-28T08:59:44;101065.44;;;25.57;37.09
12868;BME280;33517;49.866;8.320;2024-02-28T09:02:36;101067.31;;;26.33;34.87
12868;BME280;33517;49.866;8.320;2024-02-28T09:05:28;101076.06;;;26.02;34.43
12868;BME280;33517;49.866;8.320;2024-02-28T09:08:20;101071.09;;;26.10;35.28
12868;BME280;33517;49.866;8.320;2024-02-28T09:11:12;101075.41;;;22.11;37.80
12868;BME280;33517;49.866;8.320;2024-02-28T09:14:04;101081.56;;;20.64;39.95
12868;BME280;33517;49.866;8.320;2024-02-28T09:16:57;101082.25;;;19.89;39.99
12868;BME280;33517;49.866;8.320;2024-02-28T09:19:53;101080.19;;;22.27;38.64
12868;BME280;33517;49.866;8.320;2024-02-28T09:22:45;101074.19;;;24.41;35.48
12868;BME280;33517;49.866;8.320;2024-02-28T09:25:37;101074.38;;;24.12;34.01
12868;BME280;33517;49.866;8.320;2024-02-28T09:28:29;101075.78;;;24.82;35.29
12868;BME280;33517;49.866;8.320;2024-02-28T09:31:21;101076.44;;;25.89;34.96
12868;BME280;33517;49.866;8.320;2024-02-28T09:34:14;101078.03;;;25.90;32.23
12868;BME280;33517;49.866;8.320;2024-02-28T09:37:06;101075.97;;;26.35;34.09
12868;BME280;33517;49.866;8.320;2024-02-28T09:39:58;101080.88;;;25.28;30.97
12868;BME280;33517;49.866;8.320;2024-02-28T09:42:52;101076.00;;;21.52;36.95
12868;BME280;33517;49.866;8.320;2024-02-28T09:45:44;101080.84;;;20.81;37.78
12868;BME280;33517;49.866;8.320;2024-02-28T09:48:38;101079.00;;;22.23;36.61
12868;BME280;33517;49.866;8.320;2024-02-28T09:51:33;101067.88;;;23.85;34.59
12868;BME280;33517;49.866;8.320;2024-02-28T09:54:25;101077.53;;;25.05;32.78
12868;BME280;33517;49.866;8.320;2024-02-28T09:57:17;101081.13;;;25.10;31.98
12868;BME280;33517;49.866;8.320;2024-02-28T10:00:10;101079.84;;;25.29;32.21
12868;BME280;33517;49.866;8.320;2024-02-28T10:03:03;101081.69;;;25.12;32.96
12868;BME280;33517;49.866;8.320;2024-02-28T10:05:55;101079.94;;;25.89;32.89
12868;BME280;33517;49.866;8.320;2024-02-28T10:08:48;101084.50;;;26.49;32.66
12868;BME280;33517;49.866;8.320;2024-02-28T10:11:41;101078.50;;;26.20;30.05
12868;BME280;33517;49.866;8.320;2024-02-28T10:14:34;101082.97;;;26.58;31.33
12868;BME280;33517;49.866;8.320;2024-02-28T10:17:26;101091.81;;;27.01;31.93
12868;BME280;33517;49.866;8.320;2024-02-28T10:20:18;101091.34;;;27.09;30.56
12868;BME280;33517;49.866;8.320;2024-02-28T10:23:10;101097.56;;;26.83;30.53
12868;BME280;33517;49.866;8.320;2024-02-28T10:26:03;101099.88;;;26.70;30.77
12868;BME280;33517;49.866;8.320;2024-02-28T10:28:55;101102.81;;;26.95;30.41
12868;BME280;33517;49.866;8.320;2024-02-28T10:31:47;101096.75;;;27.41;29.09
12868;BME280;33517;49.866;8.320;2024-02-28T10:34:40;101101.66;;;27.44;29.16
12868;BME280;33517;49.866;8.320;2024-02-28T10:37:32;101097.56;;;26.83;28.86
12868;BME280;33517;49.866;8.320;2024-02-28T10:40:26;101102.53;;;26.43;30.37
12868;BME280;33517;49.866;8.320;2024-02-28T10:43:22;101102.88;;;26.73;30.17
12868;BME280;33517;49.866;8.320;2024-02-28T10:46:14;101100.69;;;26.49;29.45
12868;BME280;33517;49.866;8.320;2024-02-28T10:49:06;101103.44;;;26.75;29.65
12868;BME280;33517;49.866;8.320;2024-02-28T10:51:58;101095.84;;;26.72;29.53
12868;BME280;33517;49.866;8.320;2024-02-28T10:54:54;101096.63;;;26.94;29.62
12868;BME280;33517;49.866;8.320;2024-02-28T10:57:51;101103.53;;;27.12;28.90
12868;BME280;33517;49.866;8.320;2024-02-28T11:00:48;101097.25;;;26.31;27.87
12868;BME280;33517;49.866;8.320;2024-02-28T11:03:42;101101.28;;;25.91;31.14
12868;BME280;33517;49.866;8.320;2024-02-28T11:06:35;101102.44;;;26.38;28.65
12868;BME280;33517;49.866;8.320;2024-02-28T11:09:28;101101.63;;;25.61;30.01
12868;BME280;33517;49.866;8.320;2024-02-28T11:12:26;101101.13;;;26.40;30.13
12868;BME280;33517;49.866;8.320;2024-02-28T11:15:19;101092.97;;;25.76;29.83
12868;BME280;33517;49.866;8.320;2024-02-28T11:18:12;101097.41;;;24.87;29.77
12868;BME280;33517;49.866;8.320;2024-02-28T11:21:14;101099.59;;;24.74;30.88
12868;BME280;33517;49.866;8.320;2024-02-28T11:24:06;101090.41;;;23.49;30.51
12868;BME280;33517;49.866;8.320;2024-02-28T11:27:00;101093.94;;;23.84;31.50
12868;BME280;33517;49.866;8.320;2024-02-28T11:29:53;101099.31;;;24.47;30.58
12868;BME280;33517;49.866;8.320;2024-02-28T11:32:45;101096.25;;;25.44;29.42
12868;BME280;33517;49.866;8.320;2024-02-28T11:35:38;101089.25;;;25.43;29.41
12868;BME280;33517;49.866;8.320;2024-02-28T11:38:30;101088.66;;;25.96;29.85
12868;BME280;33517;49.866;8.320;2024-02-28T11:41:26;101076.75;;;25.92;29.43
12868;BME280;33517;49.866;8.320;2024-02-28T11:44:19;101081.44;;;26.02;30.06
12868;BME280;33517;49.866;8.320;2024-02-28T11:47:11;101077.66;;;26.41;29.11
12868;BME280;33517;49.866;8.320;2024-02-28T11:50:04;101092.13;;;26.78;29.51
12868;BME280;33517;49.866;8.320;2024-02-28T11:52:58;101086.28;;;26.65;29.30
12868;BME280;33517;49.866;8.320;2024-02-28T11:55:52;101086.06;;;26.23;28.32
12868;BME280;33517;49.866;8.320;2024-02-28T11:58:58;101086.59;;;25.65;28.38
12868;BME280;33517;49.866;8.320;2024-02-28T12:01:50;101084.13;;;26.18;28.04
12868;BME280;33517;49.866;8.320;2024-02-28T12:04:43;101086.72;;;24.36;29.70
12868;BME280;33517;49.866;8.320;2024-02-28T12:07:36;101078.59;;;24.08;30.63
12868;BME280;33517;49.866;8.320;2024-02-28T12:10:29;101070.56;;;24.76;30.17
12868;BME280;33517;49.866;8.320;2024-02-28T12:13:23;101068.19;;;24.11;28.77
12868;BME280;33517;49.866;8.320;2024-02-28T12:16:15;101071.75;;;22.60;30.68
12868;BME280;33517;49.866;8.320;2024-02-28T12:19:07;101055.81;;;23.41;30.52
12868;BME280;33517;49.866;8.320;2024-02-28T12:22:00;101054.09;;;22.94;31.06
12868;BME280;33517;49.866;8.320;2024-02-28T12:24:52;101049.66;;;23.75;30.10
12868;BME280;33517;49.866;8.320;2024-02-28T12:27:45;101051.53;;;24.54;30.41
12868;BME280;33517;49.866;8.320;2024-02-28T12:30:40;101046.41;;;25.64;28.92
12868;BME280;33517;49.866;8.320;2024-02-28T12:33:32;101041.75;;;25.59;29.43
12868;BME280;33517;49.866;8.320;2024-02-28T12:36:25;101046.91;;;24.94;28.83
12868;BME280;33517;49.866;8.320;2024-02-28T12:39:17;101036.72;;;24.51;30.14
12868;BME280;33517;49.866;8.320;2024-02-28T12:42:09;101042.16;;;24.56;30.16
12868;BME280;33517;49.866;8.320;2024-02-28T12:45:02;101034.00;;;24.51;29.67
12868;BME280;33517;49.866;8.320;2024-02-28T12:47:54;101028.69;;;23.89;30.08
12868;BME280;33517;49.866;8.320;2024-02-28T12:50:47;101018.59;;;24.47;30.11
12868;BME280;33517;49.866;8.320;2024-02-28T12:53:40;101020.03;;;24.83;29.86
12868;BME280;33517;49.866;8.320;2024-02-28T12:56:32;101021.28;;;24.63;29.65
12868;BME280;33517;49.866;8.320;2024-02-28T12:59:24;101020.88;;;24.55;29.83
12868;BME280;33517;49.866;8.320;2024-02-28T13:02:17;101020.88;;;24.55;30.12
12868;BME280;33517;49.866;8.320;2024-02-28T13:05:11;101022.03;;;24.59;29.97
12868;BME280;33517;49.866;8.320;2024-02-28T13:08:04;101005.94;;;24.76;29.43
12868;BME280;33517;49.866;8.320;2024-02-28T13:10:56;101008.44;;;23.98;31.05
12868;BME280;33517;49.866;8.320;2024-02-28T13:13:48;101010.91;;;23.88;30.87
12868;BME280;33517;49.866;8.320;2024-02-28T13:16:40;100999.03;;;23.14;31.48
12868;BME280;33517;49.866;8.320;2024-02-28T13:19:34;101008.97;;;21.83;31.91
12868;BME280;33517;49.866;8.320;2024-02-28T13:22:26;101003.09;;;22.23;32.47
12868;BME280;33517;49.866;8.320;2024-02-28T13:25:18;100995.50;;;22.79;32.22
12868;BME280;33517;49.866;8.320;2024-02-28T13:28:10;100993.00;;;23.42;32.31
12868;BME280;33517;49.866;8.320;2024-02-28T13:31:03;100998.22;;;22.91;32.26
12868;BME280;33517;49.866;8.320;2024-02-28T13:33:55;100989.31;;;22.19;32.99
12868;BME280;33517;49.866;8.320;2024-02-28T13:36:49;100998.13;;;22.08;33.59
12868;BME280;33517;49.866;8.320;2024-02-28T13:39:42;100997.31;;;21.11;33.80
12868;BME280;33517;49.866;8.320;2024-02-28T13:42:34;100983.56;;;21.25;33.83
12868;BME280;33517;49.866;8.320;2024-02-28T13:45:26;100983.75;;;21.05;34.22
12868;BME280;33517;49.866;8.320;2024-02-28T13:48:19;100989.00;;;20.25;35.24
12868;BME280;33517;49.866;8.320;2024-02-28T13:51:12;100980.28;;;20.74;35.07
12868;BME280;33517;49.866;8.320;2024-02-28T13:54:07;100972.94;;;21.19;33.85
12868;BME280;33517;49.866;8.320;2024-02-28T13:56:59;100965.44;;;21.27;34.33
12868;BME280;33517;49.866;8.320;2024-02-28T13:59:52;100975.09;;;21.89;33.56
12868;BME280;33517;49.866;8.320;2024-02-28T14:02:45;100969.81;;;21.40;34.21
12868;BME280;33517;49.866;8.320;2024-02-28T14:05:37;100964.75;;;20.82;34.76
12868;BME280;33517;49.866;8.320;2024-02-28T14:08:29;100969.81;;;18.87;36.08
12868;BME280;33517;49.866;8.320;2024-02-28T14:11:23;100976.78;;;17.95;37.55
12868;BME280;33517;49.866;8.320;2024-02-28T14:14:15;100968.50;;;17.77;37.76
12868;BME280;33517;49.866;8.320;2024-02-28T14:17:08;100969.72;;;18.28;37.40
12868;BME280;33517;49.866;8.320;2024-02-28T14:20:00;100969.38;;;18.45;36.57
12868;BME280;33517;49.866;8.320;2024-02-28T14:22:52;100961.41;;;17.97;37.06
12868;BME280;33517;49.866;8.320;2024-02-28T14:25:43;100964.75;;;17.31;37.67
12868;BME280;33517;49.866;8.320;2024-02-28T14:28:37;100963.81;;;17.11;37.66
12868;BME280;33517;49.866;8.320;2024-02-28T14:31:29;100966.56;;;16.75;38.46
12868;BME280;33517;49.866;8.320;2024-02-28T14:34:21;100965.38;;;16.00;39.39
12868;BME280;33517;49.866;8.320;2024-02-28T14:37:14;100963.97;;;15.16;40.74
12868;BME280;33517;49.866;8.320;2024-02-28T14:40:07;100964.19;;;14.32;42.24
12868;BME280;33517;49.866;8.320;2024-02-28T14:43:01;100960.09;;;14.22;41.47
12868;BME280;33517;49.866;8.320;2024-02-28T14:45:55;100954.81;;;14.52;40.92
12868;BME280;33517;49.866;8.320;2024-02-28T14:48:47;100956.25;;;14.55;41.13
12868;BME280;33517;49.866;8.320;2024-02-28T14:51:43;100957.44;;;14.52;40.87
12868;BME280;33517;49.866;8.320;2024-02-28T14:54:39;100959.94;;;14.23;41.81
12868;BME280;33517;49.866;8.320;2024-02-28T14:57:31;100962.53;;;13.70;41.90
12868;BME280;33517;49.866;8.320;2024-02-28T15:00:22;100962.94;;;13.43;42.87
12868;BME280;33517;49.866;8.320;2024-02-28T15:03:16;100955.69;;;13.37;42.84
12868;BME280;33517;49.866;8.320;2024-02-28T15:06:09;100958.91;;;13.63;42.89
12868;BME280;33517;49.866;8.320;2024-02-28T15:09:00;100955.72;;;13.75;43.24
12868;BME280;33517;49.866;8.320;2024-02-28T15:11:56;100959.50;;;13.34;43.37